Aérodrome :
LOGIN :

S'inscrire | Disclaimer

   EN    FR    IT 

 










Légende :    VFR   VFR Marginal   IFR   IFR Intensif   IFR Très Intensif
Visi : 
Plafond : 
>= 8 km
>= 3000ft
5 à 8 km
1000 à 3000 ft
1500m à 5 km
500 à 1000 ft
800 à 1500m
200 à 500 ft
< 800m
< 200 ft
Symboles :   Orages  Brouillard  Fortes neiges  Fortes précipitations  Vent > 20 kt
SIGMETs :   Divers  Orages  Givrage  Turbulence  Onde Orograph.  Cendres Volcan.






- Altitude de l'aérodrome : 257 ft
- Code IATA : MAN


EGCC - Manchester

DERNIER METAR :
  • 271620Z 29015KT 9999 SCT030 06/M01 Q1007

METARs EXPIRÉS :
  • 271550Z 29018KT 9999 SCT030 06/M01 Q1006
  • 271520Z AUTO 29019KT 9999 SCT029 BKN042 06/M01 Q1006
  • 271450Z AUTO 29019KT 9999 BKN029 BKN039 06/M01 Q1005
  • 271420Z AUTO 30016KT 9999 BKN025 BKN030 06/M00 Q1004
  • 271350Z AUTO 30017KT 9999 BKN027 05/M01 Q1004 NOSIG

TAF TAF EGCC
Valide du 27 à 12h jusqu'au 28 à 18h UTC


271057Z 2712/2818 30012KT 9999 SCT020
PROB30
TEMPO 2712/2718 28016G26KT 6000 SHRA
BECMG 2721/2724 21008KT
BECMG 2806/2809 15015KT
TEMPO 2808/2812 16016G26KT 8000 -RA BKN012
PROB40
TEMPO 2808/2818 4000 RADZ BKN008
TEMPO 2812/2818 8000 -RA BKN012
ATIS : +44 161 499 2324



MET'MAP, la Météo Aéronautique d'un coup d'oeil ! - Copyright ORBIFLY Décembre 2007 - Disclaimer

ORBIFLY MET'MAP TEAM :

Programmation & Développement : Alexandra Zaïnal
Sur une idée originale de : Baudouin d'Aumeries
Assistance à la programmation : Marc-Olivier Méhu
Soutien technique & logistique : Manuel Goepfert

Contact : metmap@orbifly.com




SOURCES & CREDITS :

   NOAA